Murrieta, CA (92563)

12:10 AM PDT on September 03, 2015 (GMT -0700)
Los Alamos and Whitewood | | Change Station
CLOSE
Current Station
Personal Weather Station
Location: Murrieta, CA
Elevation: 1243 ft
Nearby Weather Stations

Elev 1243 ft 33.57 °N, 117.18 °W | Updated 4 seconds ago

Clear
Clear
62.5 °F
Feels Like 62.5 °F
N
1.2
Wind Variable Wind from East
Gusts 1.2 mph

Today
High -- | Low -- °F
--% Chance of Precip.
Yesterday
High -- | Low -- °F
Precip. -- in
6:23 AM 7:11 PM
Waning Gibbous, 73% visible
Pressure 29.96 in
Visibility 10.0 miles
Clouds Clear
Dew Point 58 °F
Humidity 85%
Rainfall 0.00 in
Snow Depth Not available.
UV 0 out of 12
Pollen 7.00 out of 12
Air Quality Not available.
Flu Activity Not available.
METAR KF70 030655Z AUTO 14004KT 10SM CLR 16/14 A2996 RMK AO1
Pressure 29.96 in
Visibility 10.0 miles
Clouds Clear
Dew Point 58 °F
Humidity 85%
Rainfall 0.00 in
Snow Depth Not available.
UV 0 out of 12
Pollen 7.00 out of 12
Air Quality Not available.
Flu Activity Not available.
METAR KF70 030655Z AUTO 14004KT 10SM CLR 16/14 A2996 RMK AO1

10-Day Weather Forecast

×

Almanac

Astronomy

Sep. 03, 2015 Rise Set
Actual Time
Civil Twilight
Nautical Twilight
Astronomical Twilight
Moon
Length of Visible Light
Length of Day
Tomorrow will be .
, % of the Moon is Illuminated

Today's Extremes

State Highs State Lows

Community

WunderPhotos

Upload Photos

1,851,915 photos uploaded!

WunderBlogs® & News

Nearby

Air Quality

  Air Quality AQ Index Pollutant
Not available.

Snow Depth

Station Depth Elevation

Earthquake Activity

City Distance Mag. Time & Date
Minimum magnitude displayed is 2.5.

Coastal Water Temperatures

Place Temperature

Stations

Nearby Weather Stations

Station Location Temp. Windchill Dew Point Humidity Wind Precip. Elev Updated Type